Time;durP1;ratioP1;P1;durP2;ratioP2;P2;SDS_P1;SDS_P2;PMS_P1;PMS_P2;Temp;Humidity;BMP_temperature;BMP_pressure;BME280_temperature;BME280_humidity;BME280_pressure;Samples;Min_cycle;Max_cycle;Signal;HPM_P1;HPM_P2
2022/11/19 00:01:24;;;;;;;1.17;1.00;;;;;;;-141.59;100.00;61776.25;5084983;28;20232;-79
2022/11/19 00:03:52;;;;;;;1.20;1.10;;;;;;;-141.59;100.00;61776.25;5081462;28;20240;-78
2022/11/19 00:06:21;;;;;;;1.10;1.00;;;;;;;-141.59;100.00;61776.25;5094918;28;20211;-78
2022/11/19 00:08:49;;;;;;;1.03;1.00;;;;;;;-141.59;100.00;61776.25;5087598;27;20256;-80
2022/11/19 00:12:53;;;;;;;1.50;1.07;;;;;;;-141.59;100.00;61776.25;5079594;28;20231;-78
2022/11/19 00:14:07;;;;;;;1.07;0.90;;;;;;;-141.59;100.00;61776.25;5078017;28;20223;-78
2022/11/19 00:16:34;;;;;;;1.00;0.90;;;;;;;-141.59;100.00;61776.25;5102235;28;20188;-79
2022/11/19 00:19:01;;;;;;;1.00;1.00;;;;;;;-141.59;100.00;61776.25;5087362;28;20307;-77
2022/11/19 00:21:28;;;;;;;1.20;1.10;;;;;;;-141.59;100.00;61776.25;5082331;28;20205;-78
2022/11/19 00:23:56;;;;;;;1.20;0.90;;;;;;;-141.59;100.00;61776.25;5103251;28;20200;-78
2022/11/19 00:26:25;;;;;;;1.10;0.97;;;;;;;-141.59;100.00;61776.25;5077957;28;20200;-78
2022/11/19 00:28:52;;;;;;;1.27;0.90;;;;;;;-141.59;100.00;61776.25;5087869;28;20278;-78
2022/11/19 00:31:19;;;;;;;3.43;0.90;;;;;;;-141.59;100.00;61776.25;5081858;28;20264;-78
2022/11/19 00:33:49;;;;;;;1.57;0.90;;;;;;;-141.59;100.00;61776.25;5076632;28;20193;-79
2022/11/19 00:36:16;;;;;;;1.00;0.90;;;;;;;-141.59;100.00;61776.25;5081784;28;20206;-78
2022/11/19 00:38:43;;;;;;;1.67;1.00;;;;;;;-141.59;100.00;61776.25;5080818;28;20267;-79
2022/11/19 00:41:11;;;;;;;1.10;1.00;;;;;;;-141.59;100.00;61776.25;5074122;28;20205;-78
2022/11/19 00:43:48;;;;;;;0.90;0.90;;;;;;;-141.59;100.00;61776.25;5082188;28;20231;-79
2022/11/19 00:46:18;;;;;;;1.37;0.97;;;;;;;-141.59;100.00;61776.25;5078491;28;20216;-79
2022/11/19 00:48:46;;;;;;;1.10;1.00;;;;;;;-141.59;100.00;61776.25;5077312;28;20259;-77
2022/11/19 00:51:13;;;;;;;0.90;0.90;;;;;;;-141.59;100.00;61776.25;5082534;28;20490;-79
2022/11/19 00:53:40;;;;;;;0.80;0.80;;;;;;;-141.59;100.00;61776.25;5081489;28;20200;-78
2022/11/19 00:56:09;;;;;;;1.43;0.87;;;;;;;-141.59;100.00;61776.25;5074388;28;20297;-79
2022/11/19 00:58:37;;;;;;;1.00;0.90;;;;;;;-141.59;100.00;61776.25;5084279;28;20205;-78
2022/11/19 01:01:07;;;;;;;0.90;0.90;;;;;;;-141.59;100.00;61776.25;5074140;28;20275;-76
2022/11/19 01:03:35;;;;;;;1.00;0.90;;;;;;;-141.59;100.00;61776.25;5079002;28;20224;-75
2022/11/19 01:06:02;;;;;;;0.83;0.83;;;;;;;-141.59;100.00;61776.25;5075658;28;20206;-77
2022/11/19 01:08:29;;;;;;;0.90;0.80;;;;;;;-141.59;100.00;61776.25;5088829;28;20194;-78
2022/11/19 01:10:56;;;;;;;1.20;0.80;;;;;;;-141.59;100.00;61776.25;5085139;28;20217;-76
2022/11/19 01:13:35;;;;;;;0.87;0.87;;;;;;;-141.59;100.00;61776.25;5073331;28;20201;-78
2022/11/19 01:16:06;;;;;;;1.43;0.90;;;;;;;-141.59;100.00;61776.25;5074419;28;20208;-77
2022/11/19 01:18:34;;;;;;;2.37;1.10;;;;;;;-141.59;100.00;61776.25;5073862;28;20194;-78
2022/11/19 01:21:02;;;;;;;1.00;0.93;;;;;;;-141.59;100.00;61776.25;5081091;28;20209;-78
2022/11/19 01:23:29;;;;;;;1.03;0.87;;;;;;;-141.59;100.00;61776.25;5085218;28;20289;-79
2022/11/19 01:25:56;;;;;;;2.10;0.90;;;;;;;-141.59;100.00;61776.25;5071083;28;20197;-79
2022/11/19 01:28:24;;;;;;;1.27;0.70;;;;;;;-141.59;100.00;61776.25;5074821;28;20346;-78
2022/11/19 01:30:52;;;;;;;0.97;0.63;;;;;;;-141.59;100.00;61776.25;5075543;28;20350;-78
2022/11/19 01:33:21;;;;;;;1.63;0.90;;;;;;;-141.59;100.00;61776.25;5076196;28;20211;-78
2022/11/19 01:35:55;;;;;;;1.43;0.77;;;;;;;-141.59;100.00;61776.25;5074066;28;20212;-78
2022/11/19 01:38:23;;;;;;;1.00;0.80;;;;;;;-141.59;100.00;61776.25;5081923;28;20302;-79
2022/11/19 01:40:50;;;;;;;1.03;0.93;;;;;;;-141.59;100.00;61776.25;5079266;28;20204;-78
2022/11/19 01:43:17;;;;;;;0.70;0.70;;;;;;;-141.59;100.00;61776.25;5075743;28;20359;-77
2022/11/19 01:45:47;;;;;;;1.23;0.70;;;;;;;-141.59;100.00;61776.25;5072072;28;20190;-78
2022/11/19 01:48:19;;;;;;;0.70;0.70;;;;;;;-141.59;100.00;61776.25;5097927;28;20216;-78
2022/11/19 01:50:53;;;;;;;0.70;0.70;;;;;;;-141.59;100.00;61776.25;5075085;28;20206;-78
2022/11/19 01:53:22;;;;;;;0.97;0.80;;;;;;;-141.59;100.00;61776.25;5070956;28;20193;-78
2022/11/19 01:55:51;;;;;;;0.90;0.80;;;;;;;-141.59;100.00;61776.25;5087348;28;20300;-78
2022/11/19 01:58:21;;;;;;;0.70;0.70;;;;;;;-141.59;100.00;61776.25;5077330;28;20235;-78
2022/11/19 02:00:48;;;;;;;0.70;0.70;;;;;;;-141.59;100.00;61776.25;5075075;28;20206;-78
2022/11/19 02:03:17;;;;;;;0.80;0.80;;;;;;;-141.59;100.00;61776.25;5077260;28;20227;-78
2022/11/19 02:05:46;;;;;;;0.90;0.90;;;;;;;-141.59;100.00;61776.25;5072284;28;20201;-79
2022/11/19 02:08:36;;;;;;;0.80;0.80;;;;;;;-141.59;100.00;61776.25;5080140;28;20214;-79
2022/11/19 02:11:27;;;;;;;2.57;0.87;;;;;;;-141.59;100.00;61776.25;5075092;28;20221;-78
2022/11/19 02:14:03;;;;;;;0.97;0.83;;;;;;;-141.59;100.00;61776.25;5103983;28;20206;-79
2022/11/19 02:16:36;;;;;;;1.47;0.90;;;;;;;-141.59;100.00;61776.25;5075828;28;20216;-78
2022/11/19 02:19:13;;;;;;;2.40;0.70;;;;;;;-141.59;100.00;61776.25;5079590;28;20228;-80
2022/11/19 02:21:52;;;;;;;1.53;0.87;;;;;;;-141.59;100.00;61776.25;5077891;28;20295;-78
2022/11/19 02:24:46;;;;;;;0.80;0.80;;;;;;;-141.59;100.00;61776.25;5082797;28;20278;-79
2022/11/19 02:28:00;;;;;;;0.70;0.70;;;;;;;-141.59;100.00;61776.25;5080250;28;20201;-78
2022/11/19 02:30:32;;;;;;;4.30;0.90;;;;;;;-141.59;100.00;61776.25;5080137;28;20352;-79
2022/11/19 02:33:05;;;;;;;1.70;0.73;;;;;;;-141.59;100.00;61776.25;5079291;28;20220;-78
2022/11/19 02:35:47;;;;;;;1.00;0.90;;;;;;;-141.59;100.00;61776.25;5075106;28;20208;-78
2022/11/19 02:38:29;;;;;;;0.97;0.80;;;;;;;-141.59;100.00;61776.25;5084595;28;20242;-79
2022/11/19 02:41:00;;;;;;;0.67;0.67;;;;;;;-141.59;100.00;61776.25;5095793;28;20220;-78
2022/11/19 02:43:35;;;;;;;0.70;0.70;;;;;;;-141.59;100.00;61776.25;5073718;28;20216;-78
2022/11/19 02:46:09;;;;;;;0.90;0.90;;;;;;;-141.59;100.00;61776.25;5100155;28;20270;-78
2022/11/19 02:48:40;;;;;;;0.80;0.80;;;;;;;-141.59;100.00;61776.25;5086357;28;20264;-78
2022/11/19 02:51:08;;;;;;;0.80;0.80;;;;;;;-141.59;100.00;61776.25;5098531;28;20286;-79
2022/11/19 02:53:35;;;;;;;1.07;0.80;;;;;;;-141.59;100.00;61776.25;5075545;28;20200;-78
2022/11/19 02:56:12;;;;;;;1.80;0.90;;;;;;;-141.59;100.00;61776.25;5081822;28;20200;-79
2022/11/19 03:04:33;;;;;;;1.77;0.80;;;;;;;-141.59;100.00;61776.25;5096011;28;20248;-78
2022/11/19 03:07:05;;;;;;;0.70;0.70;;;;;;;-141.59;100.00;61776.25;5085730;28;20302;-79
2022/11/19 03:09:36;;;;;;;1.13;1.00;;;;;;;-141.59;100.00;61776.25;5082345;28;20227;-79
2022/11/19 03:12:12;;;;;;;1.20;1.10;;;;;;;-141.59;100.00;61776.25;5077953;28;20250;-78
2022/11/19 03:17:40;;;;;;;1.47;1.20;;;;;;;-141.59;100.00;61776.25;5084764;28;20217;-78
2022/11/19 03:20:16;;;;;;;1.20;1.10;;;;;;;-141.59;100.00;61776.25;5084361;28;20300;-78
2022/11/19 03:22:52;;;;;;;1.30;1.00;;;;;;;-141.59;100.00;61776.25;5085581;28;20231;-78
2022/11/19 03:25:25;;;;;;;1.50;1.10;;;;;;;-141.59;100.00;61776.25;5086744;28;20213;-78
2022/11/19 03:27:59;;;;;;;2.63;1.37;;;;;;;-141.59;100.00;61776.25;5079087;28;20345;-80
2022/11/19 03:30:29;;;;;;;2.33;1.53;;;;;;;-141.59;100.00;61776.25;5073250;28;20233;-79
2022/11/19 03:33:02;;;;;;;1.60;1.40;;;;;;;-141.59;100.00;61776.25;5077120;28;20228;-79
2022/11/19 03:35:35;;;;;;;3.57;1.63;;;;;;;-141.59;100.00;61776.25;5074472;28;20241;-80
2022/11/19 03:38:07;;;;;;;2.30;1.30;;;;;;;-141.59;100.00;61776.25;5088231;28;20235;-78
2022/11/19 03:40:35;;;;;;;3.73;2.00;;;;;;;-141.59;100.00;61776.25;5077876;28;20197;-79
2022/11/19 03:43:08;;;;;;;1.97;1.77;;;;;;;-141.59;100.00;61776.25;5077468;28;20229;-78
2022/11/19 03:45:41;;;;;;;8.03;4.60;;;;;;;-141.59;100.00;61776.25;5079906;28;20240;-78
2022/11/19 03:48:11;;;;;;;1.97;1.57;;;;;;;-141.59;100.00;61776.25;5084145;28;20236;-78
2022/11/19 03:50:45;;;;;;;1.77;1.27;;;;;;;-141.59;100.00;61776.25;5081189;28;20255;-78
2022/11/19 03:53:12;;;;;;;1.20;1.10;;;;;;;-141.59;100.00;61776.25;5088040;28;20201;-79
2022/11/19 03:55:45;;;;;;;1.10;1.00;;;;;;;-141.59;100.00;61776.25;5077190;28;20198;-78
2022/11/19 03:58:13;;;;;;;0.80;0.80;;;;;;;-141.59;100.00;61776.25;5084805;28;20206;-79
2022/11/19 04:00:40;;;;;;;0.83;0.83;;;;;;;-141.59;100.00;61776.25;5072881;28;20208;-78
2022/11/19 04:03:08;;;;;;;1.17;0.90;;;;;;;-141.59;100.00;61776.25;5072930;28;20209;-79
2022/11/19 04:05:35;;;;;;;0.83;0.70;;;;;;;-141.59;100.00;61776.25;5082738;28;20245;-78
2022/11/19 04:08:02;;;;;;;0.70;0.70;;;;;;;-141.59;100.00;61776.25;5078536;28;20209;-79
2022/11/19 04:10:29;;;;;;;0.70;0.70;;;;;;;-141.59;100.00;61776.25;5081077;28;20243;-79
2022/11/19 04:12:57;;;;;;;1.60;1.13;;;;;;;-141.59;100.00;61776.25;5076465;28;20264;-79
2022/11/19 04:15:24;;;;;;;0.87;0.80;;;;;;;-141.59;100.00;61776.25;5076507;28;20201;-78
2022/11/19 04:17:51;;;;;;;0.80;0.80;;;;;;;-141.59;100.00;61776.25;5083433;28;20228;-78
2022/11/19 04:20:19;;;;;;;0.70;0.70;;;;;;;-141.59;100.00;61776.25;5071194;28;20205;-79
2022/11/19 04:22:46;;;;;;;1.57;0.80;;;;;;;-141.59;100.00;61776.25;5078391;28;20196;-78
2022/11/19 04:25:13;;;;;;;0.70;0.70;;;;;;;-141.59;100.00;61776.25;5075651;28;20201;-79
2022/11/19 04:27:40;;;;;;;0.73;0.73;;;;;;;-141.59;100.00;61776.25;5070743;28;20197;-78
2022/11/19 04:30:09;;;;;;;2.67;0.80;;;;;;;-141.59;100.00;61776.25;5078995;28;20299;-78
2022/11/19 04:32:37;;;;;;;0.90;0.70;;;;;;;-141.59;100.00;61776.25;5074263;28;20213;-78
2022/11/19 04:35:08;;;;;;;0.73;0.73;;;;;;;-141.59;100.00;61776.25;5084867;28;20192;-78
2022/11/19 04:37:37;;;;;;;0.80;0.80;;;;;;;-141.59;100.00;61776.25;5077371;28;20204;-79
2022/11/19 04:40:04;;;;;;;0.80;0.80;;;;;;;-141.59;100.00;61776.25;5078528;28;20200;-78
2022/11/19 04:42:32;;;;;;;1.50;0.80;;;;;;;-141.59;100.00;61776.25;5069453;28;20280;-78
2022/11/19 04:44:59;;;;;;;1.03;0.90;;;;;;;-141.59;100.00;61776.25;5076180;28;20220;-79
2022/11/19 04:47:26;;;;;;;1.27;0.90;;;;;;;-141.59;100.00;61776.25;5075998;28;20201;-79
2022/11/19 04:49:53;;;;;;;2.63;1.10;;;;;;;-141.59;100.00;61776.25;5083382;28;20193;-78
2022/11/19 04:52:20;;;;;;;0.83;0.83;;;;;;;-141.59;100.00;61776.25;5078537;28;20276;-78
2022/11/19 04:54:49;;;;;;;2.13;1.10;;;;;;;-141.59;100.00;61776.25;5075660;28;20193;-78
2022/11/19 04:57:16;;;;;;;1.60;1.10;;;;;;;-141.59;100.00;61776.25;5076719;28;20303;-78
2022/11/19 04:59:43;;;;;;;1.10;1.00;;;;;;;-141.59;100.00;61776.25;5079258;28;20354;-78
2022/11/19 05:02:10;;;;;;;1.07;1.00;;;;;;;-141.59;100.00;61776.25;5083508;28;20322;-78
2022/11/19 05:04:37;;;;;;;0.90;0.70;;;;;;;-141.59;100.00;61776.25;5072439;28;20217;-77
2022/11/19 05:07:04;;;;;;;0.90;0.70;;;;;;;-141.59;100.00;61776.25;5087452;28;20270;-77
2022/11/19 05:09:31;;;;;;;0.70;0.70;;;;;;;-141.59;100.00;61776.25;5073275;28;20232;-77
2022/11/19 05:11:59;;;;;;;0.80;0.80;;;;;;;-141.59;100.00;61776.25;5077988;28;20297;-77
2022/11/19 05:14:27;;;;;;;1.17;0.73;;;;;;;-141.59;100.00;61776.25;5072804;28;20200;-77
2022/11/19 05:16:54;;;;;;;0.87;0.70;;;;;;;-141.59;100.00;61776.25;5071097;28;20217;-78
2022/11/19 05:19:21;;;;;;;0.87;0.80;;;;;;;-141.59;100.00;61776.25;5082347;28;20205;-78
2022/11/19 05:21:48;;;;;;;1.17;1.07;;;;;;;-141.59;100.00;61776.25;5082292;28;20300;-78
2022/11/19 05:24:15;;;;;;;2.60;1.10;;;;;;;-141.59;100.00;61776.25;5077830;28;20228;-77
2022/11/19 05:26:42;;;;;;;1.97;1.10;;;;;;;-141.59;100.00;61776.25;5074111;28;20254;-78
2022/11/19 05:29:11;;;;;;;2.03;1.20;;;;;;;-141.59;100.00;61776.25;5077194;28;20205;-78
2022/11/19 05:31:38;;;;;;;1.20;1.10;;;;;;;-141.59;100.00;61776.25;5079457;28;20228;-77
2022/11/19 05:34:08;;;;;;;1.10;1.00;;;;;;;-141.59;100.00;61776.25;5076983;28;20212;-77
2022/11/19 05:36:36;;;;;;;1.00;0.90;;;;;;;-141.59;100.00;61776.25;5074774;28;20205;-77
2022/11/19 05:39:03;;;;;;;1.13;0.90;;;;;;;-141.59;100.00;61776.25;5077322;28;20258;-78
2022/11/19 05:41:30;;;;;;;1.00;0.90;;;;;;;-141.59;100.00;61776.25;5075768;28;20193;-77
2022/11/19 05:43:57;;;;;;;1.23;0.70;;;;;;;-141.59;100.00;61776.25;5084126;28;20598;-77
2022/11/19 05:46:25;;;;;;;0.63;0.63;;;;;;;-141.59;100.00;61776.25;5069833;28;20205;-77
2022/11/19 05:48:52;;;;;;;1.17;0.90;;;;;;;-141.59;100.00;61776.25;5075082;28;20213;-77
2022/11/19 05:51:19;;;;;;;13.60;8.07;;;;;;;-141.59;100.00;61776.25;5085270;28;20216;-77
2022/11/19 05:53:46;;;;;;;3.93;2.13;;;;;;;-141.59;100.00;61776.25;5080566;28;20208;-77
2022/11/19 05:56:14;;;;;;;2.07;1.17;;;;;;;-141.59;100.00;61776.25;5073119;28;20235;-77
2022/11/19 05:58:41;;;;;;;1.10;0.90;;;;;;;-141.59;100.00;61776.25;5079534;28;20193;-78
2022/11/19 06:01:09;;;;;;;2.10;1.23;;;;;;;-141.59;100.00;61776.25;5075118;28;20292;-77
2022/11/19 06:03:37;;;;;;;1.50;1.40;;;;;;;-141.59;100.00;61776.25;5083360;28;20216;-77
2022/11/19 06:06:05;;;;;;;1.40;1.30;;;;;;;-141.59;100.00;61776.25;5073167;28;20221;-77
2022/11/19 06:08:32;;;;;;;2.30;1.60;;;;;;;-141.59;100.00;61776.25;5071901;28;20290;-78
2022/11/19 06:11:02;;;;;;;1.70;1.60;;;;;;;-141.59;100.00;61776.25;5075724;28;20325;-77
2022/11/19 06:13:28;;;;;;;1.77;1.53;;;;;;;-141.59;100.00;61776.25;5085517;28;20217;-77
2022/11/19 06:15:55;;;;;;;3.70;1.90;;;;;;;-141.59;100.00;61776.25;5077352;28;20208;-77
2022/11/19 06:18:22;;;;;;;2.00;1.60;;;;;;;-141.59;100.00;61776.25;5085168;28;20334;-77
2022/11/19 06:20:51;;;;;;;2.20;1.50;;;;;;;-141.59;100.00;61776.25;5084309;28;20216;-77
2022/11/19 06:23:18;;;;;;;1.20;1.10;;;;;;;-141.59;100.00;61776.25;5073018;28;20201;-78
2022/11/19 06:25:45;;;;;;;2.27;1.20;;;;;;;-141.59;100.00;61776.25;5074342;28;20203;-78
2022/11/19 06:28:12;;;;;;;1.30;1.20;;;;;;;-141.59;100.00;61776.25;5074301;28;20209;-77
2022/11/19 06:30:39;;;;;;;1.43;1.20;;;;;;;-141.59;100.00;61776.25;5076817;28;20236;-77
2022/11/19 06:33:08;;;;;;;1.07;0.90;;;;;;;-141.59;100.00;61776.25;5082149;28;20201;-78
2022/11/19 06:35:35;;;;;;;1.67;0.90;;;;;;;-141.59;100.00;61776.25;5081405;28;20443;-78
2022/11/19 06:38:03;;;;;;;0.70;0.70;;;;;;;-141.59;100.00;61776.25;5076787;28;20254;-77
2022/11/19 06:40:30;;;;;;;0.70;0.70;;;;;;;-141.59;100.00;61776.25;5079373;28;20215;-77
2022/11/19 06:42:57;;;;;;;0.70;0.70;;;;;;;-141.59;100.00;61776.25;5084595;28;20246;-78
2022/11/19 06:45:24;;;;;;;0.60;0.60;;;;;;;-141.59;100.00;61776.25;5095940;28;20217;-78
2022/11/19 06:47:51;;;;;;;0.67;0.67;;;;;;;-141.59;100.00;61776.25;5083482;28;20344;-77
2022/11/19 06:50:18;;;;;;;0.60;0.60;;;;;;;-141.59;100.00;61776.25;5091147;28;20200;-78
2022/11/19 06:52:45;;;;;;;0.70;0.70;;;;;;;-141.59;100.00;61776.25;5102660;28;20219;-77
2022/11/19 06:55:14;;;;;;;0.87;0.87;;;;;;;-141.59;100.00;61776.25;5086786;28;20197;-78
2022/11/19 06:57:41;;;;;;;0.80;0.80;;;;;;;-141.59;100.00;61776.25;5080886;28;20204;-78
2022/11/19 07:00:09;;;;;;;1.03;0.80;;;;;;;-141.59;100.00;61776.25;5083308;28;20200;-77
2022/11/19 07:02:36;;;;;;;1.20;1.00;;;;;;;-141.59;100.00;61776.25;5084209;28;20201;-77
2022/11/19 07:05:06;;;;;;;1.00;0.90;;;;;;;-141.59;100.00;61776.25;5084678;28;20221;-79
2022/11/19 07:07:33;;;;;;;1.23;1.07;;;;;;;-141.59;100.00;61776.25;5087073;28;20212;-77
2022/11/19 07:10:03;;;;;;;1.63;1.10;;;;;;;-141.59;100.00;61776.25;5080444;28;20216;-77
2022/11/19 07:12:32;;;;;;;1.93;1.00;;;;;;;-141.59;100.00;61776.25;5084267;28;20220;-77
2022/11/19 07:15:02;;;;;;;0.70;0.70;;;;;;;-141.59;100.00;61776.25;5082814;28;20269;-78
2022/11/19 07:17:29;;;;;;;2.70;1.20;;;;;;;-141.59;100.00;61776.25;5084232;28;20211;-78
2022/11/19 07:19:56;;;;;;;2.50;0.90;;;;;;;-141.59;100.00;61776.25;5076885;28;20205;-77
2022/11/19 07:22:23;;;;;;;0.80;0.80;;;;;;;-141.59;100.00;61776.25;5076320;28;20201;-77
2022/11/19 07:24:50;;;;;;;5.10;1.77;;;;;;;-141.59;100.00;61776.25;5080241;28;20223;-77
2022/11/19 07:27:17;;;;;;;2.77;1.40;;;;;;;-141.59;100.00;61776.25;5079627;28;20243;-77
2022/11/19 07:29:46;;;;;;;14.37;7.83;;;;;;;-141.59;100.00;61776.25;5077488;28;20208;-77
2022/11/19 07:32:13;;;;;;;108.87;63.60;;;;;;;-141.59;100.00;61776.25;5080346;28;20201;-77
2022/11/19 07:34:40;;;;;;;63.00;36.73;;;;;;;-141.59;100.00;61776.25;5079148;28;20205;-78
2022/11/19 07:37:07;;;;;;;16.03;9.80;;;;;;;-141.59;100.00;61776.25;5079997;28;20232;-78
2022/11/19 07:39:34;;;;;;;16.73;10.43;;;;;;;-141.59;100.00;61776.25;5087198;28;20200;-77
2022/11/19 07:44:53;;;;;;;22.73;14.63;;;;;;;-141.59;100.00;61776.25;5092083;27;20255;-77
2022/11/19 07:47:20;;;;;;;31.60;18.40;;;;;;;-141.59;100.00;61776.25;5095426;28;20197;-76
2022/11/19 07:49:47;;;;;;;23.53;16.67;;;;;;;-141.59;100.00;61776.25;5084714;28;20205;-77
2022/11/19 07:52:14;;;;;;;22.80;14.77;;;;;;;-141.59;100.00;61776.25;5080239;28;20204;-77
2022/11/19 07:54:41;;;;;;;19.50;12.80;;;;;;;-141.59;100.00;61776.25;5094150;28;20267;-76
2022/11/19 07:57:10;;;;;;;9.07;6.90;;;;;;;-141.59;100.00;61776.25;5079214;28;20265;-79
2022/11/19 07:59:37;;;;;;;6.07;5.00;;;;;;;-141.59;100.00;61776.25;5084464;28;20263;-78
2022/11/19 08:02:10;;;;;;;2.80;2.50;;;;;;;-141.59;100.00;61776.25;5080762;28;20192;-77
2022/11/19 08:04:38;;;;;;;3.80;3.00;;;;;;;-141.59;100.00;61776.25;5082918;28;20256;-77
2022/11/19 08:07:05;;;;;;;3.83;2.87;;;;;;;-141.59;100.00;61776.25;5077594;28;20200;-77
2022/11/19 08:09:32;;;;;;;1.80;1.70;;;;;;;-141.59;100.00;61776.25;5077325;28;20296;-77
2022/11/19 08:11:59;;;;;;;3.77;1.57;;;;;;;-141.59;100.00;61776.25;5088087;28;20197;-78
2022/11/19 08:14:27;;;;;;;4.57;2.80;;;;;;;-141.59;100.00;61776.25;5083334;28;20200;-78
2022/11/19 08:19:40;;;;;;;5.93;4.43;;;;;;;-141.59;100.00;61776.25;5083897;28;20201;-78
2022/11/19 08:22:10;;;;;;;6.07;4.80;;;;;;;-141.59;100.00;61776.25;5084287;28;20197;-77
2022/11/19 08:24:38;;;;;;;4.10;3.57;;;;;;;-141.59;100.00;61776.25;5080517;28;20208;-77
2022/11/19 08:27:08;;;;;;;5.10;3.47;;;;;;;-141.59;100.00;61776.25;5076814;28;20196;-76
2022/11/19 08:29:35;;;;;;;5.37;3.30;;;;;;;-141.59;100.00;61776.25;5075852;28;20296;-77
2022/11/19 08:32:02;;;;;;;11.73;8.57;;;;;;;-141.59;100.00;61776.25;5082865;28;20224;-77
2022/11/19 08:34:31;;;;;;;7.37;5.60;;;;;;;-141.59;100.00;61776.25;5083125;28;20205;-77
2022/11/19 08:36:59;;;;;;;9.57;7.13;;;;;;;-141.59;100.00;61776.25;5082215;28;20200;-77
2022/11/19 08:39:26;;;;;;;4.87;3.73;;;;;;;-141.59;100.00;61776.25;5078828;28;20204;-77
2022/11/19 08:44:38;;;;;;;2.00;1.60;;;;;;;-141.59;100.00;61776.25;5076011;28;20269;-77
2022/11/19 08:47:05;;;;;;;2.50;1.77;;;;;;;-141.59;100.00;61776.25;5081117;28;20200;-77
2022/11/19 08:49:32;;;;;;;1.57;1.40;;;;;;;-141.59;100.00;61776.25;5082073;28;20288;-77
2022/11/19 08:52:01;;;;;;;3.17;2.20;;;;;;;-141.59;100.00;61776.25;5074725;28;20287;-78
2022/11/19 08:54:28;;;;;;;2.00;1.63;;;;;;;-141.59;100.00;61776.25;5093428;28;20195;-77
2022/11/19 08:56:55;;;;;;;2.40;1.10;;;;;;;-141.59;100.00;61776.25;5079412;28;20197;-77
2022/11/19 08:59:22;;;;;;;1.27;0.73;;;;;;;-141.59;100.00;61776.25;5073557;28;20289;-78
2022/11/19 09:01:49;;;;;;;0.60;0.60;;;;;;;-141.59;100.00;61776.25;5079994;28;20220;-77
2022/11/19 09:04:16;;;;;;;0.63;0.60;;;;;;;-141.59;100.00;61776.25;5091918;28;20209;-77
2022/11/19 09:06:43;;;;;;;0.73;0.73;;;;;;;-141.59;100.00;61776.25;5104193;28;20197;-77
2022/11/19 09:09:11;;;;;;;1.20;1.00;;;;;;;-141.59;100.00;61776.25;5075677;28;20244;-77
2022/11/19 09:11:38;;;;;;;1.13;0.90;;;;;;;-141.59;100.00;61776.25;5085031;28;20224;-77
2022/11/19 09:14:08;;;;;;;0.50;0.50;;;;;;;-141.59;100.00;61776.25;5096196;28;20258;-77
2022/11/19 09:16:35;;;;;;;0.70;0.70;;;;;;;-141.59;100.00;61776.25;5079556;28;20228;-77
2022/11/19 09:19:02;;;;;;;1.30;1.00;;;;;;;-141.59;100.00;61776.25;5075271;28;20204;-77
2022/11/19 09:21:29;;;;;;;2.10;1.53;;;;;;;-141.59;100.00;61776.25;5073978;28;20200;-77
2022/11/19 09:23:56;;;;;;;1.27;1.10;;;;;;;-141.59;100.00;61776.25;5093343;28;20196;-77
2022/11/19 09:26:25;;;;;;;1.30;1.20;;;;;;;-141.59;100.00;61776.25;5077569;28;20232;-77
2022/11/19 09:28:52;;;;;;;2.17;1.67;;;;;;;-141.59;100.00;61776.25;5076436;28;20208;-77
2022/11/19 09:31:20;;;;;;;2.63;1.60;;;;;;;-141.59;100.00;61776.25;5081858;28;20284;-77
2022/11/19 09:33:50;;;;;;;1.83;1.60;;;;;;;-141.59;100.00;61776.25;5091206;28;20235;-77
2022/11/19 09:36:18;;;;;;;1.40;1.30;;;;;;;-141.59;100.00;61776.25;5079452;28;20216;-77
2022/11/19 09:38:46;;;;;;;1.93;1.73;;;;;;;-141.59;100.00;61776.25;5075434;28;20212;-77
2022/11/19 09:41:47;;;;;;;2.93;1.20;;;;;;;-141.59;100.00;61776.25;5080697;28;20291;-77
2022/11/19 09:44:31;;;;;;;1.63;1.30;;;;;;;-141.59;100.00;61776.25;5091444;28;20272;-76
2022/11/19 09:47:06;;;;;;;1.60;1.20;;;;;;;-141.59;100.00;61776.25;5110267;27;20195;-77
2022/11/19 09:49:39;;;;;;;1.40;1.10;;;;;;;-141.59;100.00;61776.25;5083634;28;20211;-76
2022/11/19 09:52:12;;;;;;;3.07;1.00;;;;;;;-141.59;100.00;61776.25;5079027;28;20208;-77
2022/11/19 09:54:44;;;;;;;1.70;1.10;;;;;;;-141.59;100.00;61776.25;5092432;28;20209;-77
2022/11/19 09:57:18;;;;;;;1.47;1.17;;;;;;;-141.59;100.00;61776.25;5073926;28;20201;-77
2022/11/19 09:59:46;;;;;;;0.93;0.83;;;;;;;-141.59;100.00;61776.25;5085305;28;20200;-77
2022/11/19 10:02:17;;;;;;;1.67;1.13;;;;;;;-141.59;100.00;61776.25;5077358;28;20231;-79
2022/11/19 10:04:45;;;;;;;1.10;0.90;;;;;;;-141.59;100.00;61776.25;5077357;28;20216;-77
2022/11/19 10:07:22;;;;;;;5.00;2.10;;;;;;;-141.59;100.00;61776.25;5093366;28;20211;-77
2022/11/19 10:10:00;;;;;;;1.90;1.40;;;;;;;-141.59;100.00;61776.25;5089139;28;20311;-77
2022/11/19 10:12:56;;;;;;;1.87;1.50;;;;;;;-141.59;100.00;61776.25;5077613;28;20201;-77
2022/11/19 10:15:30;;;;;;;1.20;1.10;;;;;;;-141.59;100.00;61776.25;5100001;28;20193;-77
2022/11/19 10:18:08;;;;;;;1.30;1.00;;;;;;;-141.59;100.00;61776.25;5090282;28;20227;-77
2022/11/19 10:20:53;;;;;;;1.23;0.90;;;;;;;-141.59;100.00;61776.25;5073489;28;20196;-77
2022/11/19 10:23:28;;;;;;;2.20;1.40;;;;;;;-141.59;100.00;61776.25;5080141;28;20207;-78
2022/11/19 10:26:03;;;;;;;0.80;0.80;;;;;;;-141.59;100.00;61776.25;5082164;28;20224;-78
2022/11/19 10:28:38;;;;;;;4.77;3.03;;;;;;;-141.59;100.00;61776.25;5082721;28;20199;-78
2022/11/19 10:31:13;;;;;;;2.27;1.20;;;;;;;-141.59;100.00;61776.25;5103321;28;20319;-77
2022/11/19 10:33:49;;;;;;;2.23;1.40;;;;;;;-141.59;100.00;61776.25;5096629;28;20192;-77
2022/11/19 10:36:23;;;;;;;2.80;2.10;;;;;;;-141.59;100.00;61776.25;5076722;28;20196;-77
2022/11/19 10:38:57;;;;;;;3.53;2.33;;;;;;;-141.59;100.00;61776.25;5105001;28;20200;-77
2022/11/19 10:41:33;;;;;;;4.27;2.10;;;;;;;-141.59;100.00;61776.25;5099274;28;20281;-77
2022/11/19 10:44:36;;;;;;;1.37;1.20;;;;;;;-141.59;100.00;61776.25;5083366;28;20201;-78
2022/11/19 10:47:03;;;;;;;1.27;1.00;;;;;;;-141.59;100.00;61776.25;5088036;28;20212;-77
2022/11/19 10:49:32;;;;;;;0.77;0.73;;;;;;;-141.59;100.00;61776.25;5081037;28;20192;-77
2022/11/19 10:52:00;;;;;;;1.63;1.30;;;;;;;-141.59;100.00;61776.25;5089539;28;20215;-77
2022/11/19 10:54:30;;;;;;;1.27;1.10;;;;;;;-141.59;100.00;61776.25;5090765;28;20208;-78
2022/11/19 10:56:58;;;;;;;1.20;1.10;;;;;;;-141.59;100.00;61776.25;5094256;28;20263;-77
2022/11/19 10:59:31;;;;;;;0.80;0.80;;;;;;;-141.59;100.00;61776.25;5088446;28;20200;-76
2022/11/19 11:02:03;;;;;;;0.93;0.83;;;;;;;-141.59;100.00;61776.25;5075725;28;20204;-76
2022/11/19 11:04:30;;;;;;;1.40;1.07;;;;;;;-141.59;100.00;61776.25;5081037;28;20197;-77
2022/11/19 11:06:59;;;;;;;0.90;0.83;;;;;;;-141.59;100.00;61776.25;5081913;28;20216;-77
2022/11/19 11:09:32;;;;;;;1.23;0.80;;;;;;;-141.59;100.00;61776.25;5092550;28;20264;-77
2022/11/19 11:14:53;;;;;;;0.80;0.80;;;;;;;-141.59;100.00;61776.25;5081435;28;20193;-77
2022/11/19 11:17:23;;;;;;;1.77;1.00;;;;;;;-141.59;100.00;61776.25;5082265;28;20208;-77
2022/11/19 11:20:02;;;;;;;2.33;1.10;;;;;;;-141.59;100.00;61776.25;5077504;28;20231;-77
2022/11/19 11:22:29;;;;;;;1.40;1.07;;;;;;;-141.59;100.00;61776.25;5077584;28;20244;-77
2022/11/19 11:24:57;;;;;;;0.80;0.80;;;;;;;-141.59;100.00;61776.25;5093593;28;20200;-77
2022/11/19 11:27:29;;;;;;;1.73;0.70;;;;;;;-141.59;100.00;61776.25;5103387;28;20188;-78
2022/11/19 11:30:18;;;;;;;0.70;0.70;;;;;;;-141.59;100.00;61776.25;5086425;28;20226;-77
2022/11/19 11:32:46;;;;;;;0.80;0.80;;;;;;;-141.59;100.00;61776.25;5080998;28;20283;-76
2022/11/19 11:35:29;;;;;;;2.07;0.90;;;;;;;-141.59;100.00;61776.25;5096242;28;20207;-77
2022/11/19 11:37:56;;;;;;;3.77;0.90;;;;;;;-141.59;100.00;61776.25;5085729;28;20208;-77
2022/11/19 11:40:24;;;;;;;1.60;0.90;;;;;;;-141.59;100.00;61776.25;5084064;28;20208;-77
2022/11/19 11:42:53;;;;;;;1.33;0.87;;;;;;;-141.59;100.00;61776.25;5084621;28;20278;-77